Terminal Aerodrome Forecast
Issued by NWS Bismarck, ND

Home | Current Version | Previous Version | Text Only | Print | Product List | Glossary Off
Versions: 1 2 3 4 5 6 7 8 9 10 11 12 13 14

000
FTUS43 KBIS 201600 AAB
TAFBIS
TAF AMD
KBIS 201609Z 2016/2112 31020G30KT P6SM VCTS BKN035 BKN090CB
     FM201800 30022G33KT P6SM SCT050
     FM210100 31009KT P6SM SKC=

USA.gov is the U.S. government's official web portal to all federal, state and local government web resources and services.